createdAt,value
2023-04-21T00:02:10.646Z,92.59
2023-04-21T00:04:39.520Z,91.68
2023-04-21T00:07:08.937Z,91.55
2023-04-21T00:09:36.679Z,92.01
2023-04-21T00:12:06.946Z,91.66
2023-04-21T00:14:35.069Z,92.12
2023-04-21T00:17:02.973Z,92.55
2023-04-21T00:19:31.888Z,91.72
2023-04-21T00:22:01.307Z,91.16
2023-04-21T00:24:29.237Z,91.34
2023-04-21T00:26:57.725Z,91.83
2023-04-21T00:29:25.430Z,91.56
2023-04-21T00:31:53.524Z,92.10
2023-04-21T00:34:21.592Z,92.20
2023-04-21T00:36:50.005Z,93.36
2023-04-21T00:39:18.192Z,93.20
2023-04-21T00:41:58.102Z,92.15
2023-04-21T00:44:26.550Z,92.96
2023-04-21T00:46:54.914Z,93.23
2023-04-21T00:49:23.016Z,92.36
2023-04-21T00:51:51.784Z,91.76
2023-04-21T00:54:19.809Z,91.57
2023-04-21T00:56:47.640Z,92.59
2023-04-21T00:59:15.459Z,93.27
2023-04-21T01:01:43.399Z,93.43
2023-04-21T01:04:11.771Z,92.75
2023-04-21T01:06:40.121Z,93.21
2023-04-21T01:09:08.086Z,92.71
2023-04-21T01:11:37.744Z,92.59
2023-04-21T01:14:06.124Z,93.83
2023-04-21T01:16:34.150Z,93.45
2023-04-21T01:19:02.531Z,92.64
2023-04-21T01:21:32.698Z,91.39
2023-04-21T01:24:03.662Z,92.27
2023-04-21T01:26:33.047Z,93.12
2023-04-21T01:29:02.954Z,92.49
2023-04-21T01:31:31.484Z,91.87
2023-04-21T01:34:01.467Z,91.92
2023-04-21T01:36:29.397Z,91.56
2023-04-21T01:38:57.567Z,92.04
2023-04-21T01:41:25.315Z,92.49
2023-04-21T01:43:55.429Z,92.61
2023-04-21T01:46:25.480Z,92.34
2023-04-21T01:48:53.199Z,92.42
2023-04-21T01:51:20.960Z,92.37
2023-04-21T01:53:48.882Z,91.80
2023-04-21T01:56:19.178Z,91.42
2023-04-21T01:58:47.428Z,92.13
2023-04-21T02:01:15.237Z,92.15
2023-04-21T02:03:43.120Z,92.16
2023-04-21T02:06:11.206Z,92.17
2023-04-21T02:08:41.320Z,92.20
2023-04-21T02:11:09.240Z,92.94
2023-04-21T02:13:37.876Z,92.37
2023-04-21T02:16:13.251Z,91.88
2023-04-21T02:18:42.041Z,91.56
2023-04-21T02:21:09.728Z,91.54
2023-04-21T02:23:37.814Z,91.68
2023-04-21T02:26:05.652Z,91.57
2023-04-21T02:28:34.126Z,91.35
2023-04-21T02:31:01.872Z,91.08
2023-04-21T02:33:30.913Z,91.07
2023-04-21T02:35:58.945Z,91.16
2023-04-21T02:38:27.528Z,91.36
2023-04-21T02:40:55.831Z,91.89
2023-04-21T02:43:24.117Z,91.68
2023-04-21T02:45:52.820Z,92.65
2023-04-21T02:48:23.515Z,92.75
2023-04-21T02:50:53.786Z,94.57
2023-04-21T02:53:22.475Z,96.07
2023-04-21T02:55:52.547Z,96.69
2023-04-21T02:58:20.934Z,95.85
2023-04-21T03:00:48.702Z,96.96
2023-04-21T03:03:16.880Z,97.82
2023-04-21T03:05:44.766Z,96.77
2023-04-21T03:08:12.412Z,97.78
2023-04-21T03:10:41.639Z,98.35
2023-04-21T03:13:09.407Z,98.50
2023-04-21T03:15:37.438Z,98.33
2023-04-21T03:18:05.288Z,97.50
2023-04-21T03:20:33.859Z,99.35
2023-04-21T03:23:02.114Z,100.00
2023-04-21T03:25:30.997Z,100.00
2023-04-21T03:27:59.478Z,98.61
2023-04-21T03:30:27.746Z,98.92
2023-04-21T03:32:56.028Z,99.85
2023-04-21T03:35:24.912Z,98.93
2023-04-21T03:37:52.744Z,99.06
2023-04-21T03:40:21.678Z,99.09
2023-04-21T03:42:50.969Z,99.20
2023-04-21T03:45:22.819Z,100.00
2023-04-21T03:47:56.178Z,100.00
2023-04-21T03:50:24.789Z,100.00
2023-04-21T03:52:52.652Z,99.86
2023-04-21T03:55:21.258Z,99.60
2023-04-21T03:57:49.000Z,99.50
2023-04-21T04:00:16.729Z,99.95
2023-04-21T04:02:47.505Z,99.47
2023-04-21T04:05:15.556Z,100.00
2023-04-21T04:07:44.705Z,100.00
2023-04-21T04:10:12.533Z,100.00
2023-04-21T04:12:40.352Z,100.00
2023-04-21T04:15:10.114Z,100.00
2023-04-21T04:17:40.896Z,100.00
2023-04-21T04:20:09.991Z,99.27
2023-04-21T04:22:37.804Z,100.00
2023-04-21T04:25:07.431Z,100.00
2023-04-21T04:27:36.351Z,100.00
2023-04-21T04:30:08.357Z,100.00
2023-04-21T04:32:38.486Z,99.60
2023-04-21T04:35:08.573Z,100.00
2023-04-21T04:37:37.733Z,99.93
2023-04-21T04:40:07.071Z,99.15
2023-04-21T04:42:35.329Z,98.57
2023-04-21T04:45:04.328Z,97.48
2023-04-21T04:47:32.623Z,97.54
2023-04-21T04:50:01.491Z,97.70
2023-04-21T04:52:29.466Z,98.08
2023-04-21T04:54:57.916Z,98.61
2023-04-21T04:57:26.666Z,97.88
2023-04-21T04:59:58.902Z,98.94
2023-04-21T05:02:27.025Z,98.74
2023-04-21T05:04:55.528Z,98.61
2023-04-21T05:07:26.132Z,99.08
2023-04-21T05:09:54.805Z,98.65
2023-04-21T05:12:23.602Z,99.11
2023-04-21T05:14:53.566Z,99.44
2023-04-21T05:17:21.565Z,98.68
2023-04-21T05:19:49.945Z,98.62
2023-04-21T05:22:17.734Z,97.94
2023-04-21T05:24:46.100Z,98.03
2023-04-21T05:27:17.430Z,97.73
2023-04-21T05:29:46.894Z,97.39
2023-04-21T05:32:14.825Z,96.62
2023-04-21T05:34:43.133Z,96.60
2023-04-21T05:37:12.145Z,95.67
2023-04-21T05:39:39.796Z,95.08
2023-04-21T05:42:13.025Z,94.66
2023-04-21T05:44:41.071Z,94.51
2023-04-21T05:47:10.668Z,93.77
2023-04-21T05:49:39.264Z,94.12
2023-04-21T05:52:09.732Z,93.72
2023-04-21T05:54:37.677Z,93.51
2023-04-21T05:57:08.723Z,93.18
2023-04-21T05:59:37.850Z,93.03
2023-04-21T06:02:05.817Z,92.50
2023-04-21T06:04:36.609Z,92.85
2023-04-21T06:07:07.575Z,92.09
2023-04-21T06:09:36.965Z,91.47
2023-04-21T06:12:04.826Z,91.70
2023-04-21T06:14:34.651Z,92.67
2023-04-21T06:17:03.350Z,92.86
2023-04-21T06:19:31.787Z,91.81
2023-04-21T06:21:59.701Z,91.59
2023-04-21T06:24:32.192Z,90.62
2023-04-21T06:27:00.177Z,90.39
2023-04-21T06:29:29.224Z,90.65
2023-04-21T06:31:57.567Z,91.00
2023-04-21T06:34:28.127Z,91.49
2023-04-21T06:36:56.034Z,90.57
2023-04-21T06:39:26.980Z,92.13
2023-04-21T06:41:55.968Z,91.69
2023-04-21T06:44:29.834Z,91.95
2023-04-21T06:47:05.311Z,91.51
2023-04-21T06:49:34.505Z,89.55
2023-04-21T06:52:05.350Z,88.95
2023-04-21T06:54:36.873Z,87.22
2023-04-21T06:57:05.049Z,86.35
2023-04-21T06:59:34.919Z,87.47
2023-04-21T07:02:03.749Z,85.67
2023-04-21T07:04:32.711Z,85.24
2023-04-21T07:07:03.138Z,84.36
2023-04-21T07:09:34.153Z,83.37
2023-04-21T07:12:03.294Z,81.21
2023-04-21T07:14:32.126Z,80.55
2023-04-21T07:17:00.160Z,79.79
2023-04-21T07:19:28.229Z,80.59
2023-04-21T07:21:56.177Z,80.28
2023-04-21T07:24:24.274Z,79.36
2023-04-21T14:15:59.366Z,79.81
2023-04-21T14:18:26.971Z,80.03
2023-04-21T14:20:54.550Z,80.14
2023-04-21T14:23:22.140Z,80.05
2023-04-21T14:25:50.027Z,80.23
2023-04-21T14:28:17.552Z,80.67
2023-04-21T14:30:45.264Z,79.91
2023-04-21T14:33:13.046Z,79.15
2023-04-21T14:35:41.037Z,78.72
2023-04-21T14:38:08.616Z,77.95
2023-04-21T14:40:36.374Z,78.21
2023-04-21T14:43:03.897Z,78.18
2023-04-21T14:45:31.495Z,78.42
2023-04-21T14:47:59.207Z,78.75
2023-04-21T14:50:26.700Z,78.87
2023-04-21T14:52:54.310Z,78.71
2023-04-21T14:55:21.802Z,79.07
2023-04-21T14:57:49.263Z,79.15
2023-04-21T15:00:17.232Z,79.35
2023-04-21T15:02:45.007Z,79.64
2023-04-21T15:05:12.686Z,79.69
2023-04-21T15:07:40.759Z,79.79
2023-04-21T15:10:08.980Z,80.36
2023-04-21T15:12:37.014Z,80.43
2023-04-21T15:15:05.735Z,80.49
2023-04-21T15:17:33.784Z,80.97
2023-04-21T15:20:01.342Z,81.06
2023-04-21T15:22:28.780Z,82.11
2023-04-21T15:24:56.501Z,82.71
2023-04-21T15:27:24.514Z,81.49
2023-04-21T15:29:53.583Z,82.17
2023-04-21T15:32:21.609Z,81.46
2023-04-21T15:34:50.686Z,81.56
2023-04-21T15:37:21.428Z,82.49
2023-04-21T15:39:52.147Z,82.04
2023-04-21T15:42:20.303Z,82.03
2023-04-21T15:44:49.556Z,81.93
2023-04-21T15:47:19.889Z,82.49
2023-04-21T15:49:49.380Z,82.39
2023-04-21T15:52:17.248Z,82.11
2023-04-21T15:54:46.791Z,83.32
2023-04-21T15:57:15.402Z,83.06
2023-04-21T15:59:43.097Z,82.69
2023-04-21T16:02:12.104Z,83.15
2023-04-21T16:04:43.303Z,83.07
2023-04-21T16:09:54.308Z,84.09
2023-04-21T16:12:22.895Z,83.33
2023-04-21T16:14:57.640Z,83.66
2023-04-21T16:17:29.537Z,83.41
2023-04-21T16:19:58.678Z,83.80
2023-04-21T16:22:27.058Z,84.36
2023-04-21T16:24:54.981Z,83.52
2023-04-21T16:27:22.882Z,83.86
2023-04-21T16:29:50.641Z,83.94
2023-04-21T16:32:18.798Z,83.74
2023-04-21T16:34:47.089Z,83.13
2023-04-21T16:37:14.979Z,83.28
2023-04-21T16:39:43.188Z,83.10
2023-04-21T16:42:11.328Z,82.60
2023-04-21T16:44:39.201Z,82.12
2023-04-21T16:47:07.536Z,82.78
2023-04-21T16:49:36.826Z,84.11
2023-04-21T16:52:04.531Z,84.01
2023-04-21T16:54:32.704Z,83.68
2023-04-21T16:57:02.368Z,83.43
2023-04-21T16:59:33.079Z,82.85
2023-04-21T17:02:03.115Z,82.86
2023-04-21T17:04:31.809Z,83.23
2023-04-21T17:07:01.231Z,83.06
2023-04-21T17:09:30.151Z,82.88
2023-04-21T17:11:58.001Z,83.97
2023-04-21T17:14:25.785Z,84.68
2023-04-21T17:16:55.233Z,84.80
2023-04-21T17:19:23.724Z,85.08
2023-04-21T17:21:52.784Z,85.72
2023-04-21T17:24:20.899Z,85.20
2023-04-21T17:26:48.772Z,85.00
2023-04-21T17:29:16.532Z,85.10
2023-04-21T17:31:44.423Z,84.89
2023-04-21T17:34:12.633Z,83.92
2023-04-21T17:36:41.976Z,84.31
2023-04-21T17:39:10.630Z,84.54
2023-04-21T17:41:38.589Z,84.13
2023-04-21T17:44:07.103Z,84.18
2023-04-21T17:46:34.973Z,83.88
2023-04-21T17:49:03.246Z,83.93
2023-04-21T17:51:32.299Z,83.65
2023-04-21T17:54:04.008Z,83.60
2023-04-21T17:56:34.662Z,83.38
2023-04-21T17:59:02.961Z,84.24
2023-04-21T18:01:33.071Z,83.90
2023-04-21T18:04:01.552Z,83.85
2023-04-21T18:06:30.400Z,84.16
2023-04-21T18:08:58.767Z,84.16
2023-04-21T18:11:26.607Z,85.24
2023-04-21T18:13:54.494Z,84.89
2023-04-21T18:16:23.030Z,84.73
2023-04-21T18:18:54.985Z,85.52
2023-04-21T18:21:23.966Z,85.18
2023-04-21T18:23:52.155Z,85.47
2023-04-21T18:26:19.979Z,85.65
2023-04-21T18:28:47.664Z,84.80
2023-04-21T18:31:15.455Z,84.55
2023-04-21T18:33:43.641Z,85.16
2023-04-21T18:36:11.409Z,85.13
2023-04-21T18:38:39.065Z,84.42
2023-04-21T18:41:07.044Z,84.37
2023-04-21T18:43:34.853Z,84.19
2023-04-21T18:46:02.624Z,84.79
2023-04-21T18:48:30.780Z,84.51
2023-04-21T18:50:59.580Z,84.93
2023-04-21T18:53:27.372Z,84.52
2023-04-21T18:55:54.979Z,84.52
2023-04-21T18:58:23.137Z,84.84
2023-04-21T19:00:51.066Z,86.27
2023-04-21T19:03:19.598Z,85.70
2023-04-21T19:05:48.257Z,86.07
2023-04-21T19:10:44.054Z,88.03
2023-04-21T19:13:13.558Z,86.85
2023-04-21T19:15:41.212Z,86.41
2023-04-21T19:18:09.264Z,86.03
2023-04-21T19:20:37.765Z,86.46
2023-04-21T19:23:06.115Z,87.27
2023-04-21T19:25:34.131Z,87.10
2023-04-21T19:28:02.389Z,86.10
2023-04-21T19:30:30.142Z,85.58
2023-04-21T19:32:58.696Z,85.10
2023-04-21T19:35:27.098Z,85.10
2023-04-21T19:37:56.273Z,84.99
2023-04-21T19:40:24.592Z,84.58
2023-04-21T19:42:52.272Z,85.68
2023-04-21T19:45:20.398Z,84.67
2023-04-21T19:47:49.237Z,84.41
2023-04-21T19:50:16.933Z,84.16
2023-04-21T19:52:47.144Z,84.20
2023-04-21T19:55:17.319Z,83.91
2023-04-21T19:57:45.785Z,83.65
2023-04-21T20:00:16.441Z,83.71
2023-04-21T20:02:45.556Z,83.41
2023-04-21T20:05:14.838Z,83.82
2023-04-21T20:07:42.874Z,84.11
2023-04-21T20:10:11.181Z,84.19
2023-04-21T20:12:39.314Z,83.42
2023-04-21T20:15:09.155Z,84.18
2023-04-21T20:17:37.299Z,83.99
2023-04-21T20:20:06.607Z,84.30
2023-04-21T20:22:35.486Z,83.24
2023-04-21T20:25:06.232Z,83.49
2023-04-21T20:27:34.131Z,83.26
2023-04-21T20:30:03.632Z,83.44
2023-04-21T20:32:31.713Z,83.71
2023-04-21T20:34:59.968Z,84.04
2023-04-21T20:37:29.938Z,84.85
2023-04-21T20:40:00.628Z,84.79
2023-04-21T20:42:28.750Z,85.21
2023-04-21T20:44:56.435Z,85.08
2023-04-21T20:47:24.258Z,85.65
2023-04-21T20:49:54.968Z,85.53
2023-04-21T20:52:24.521Z,86.29
2023-04-21T20:54:52.695Z,87.37
2023-04-21T20:57:20.455Z,87.07
2023-04-21T20:59:49.091Z,88.01
2023-04-21T21:02:17.284Z,87.58
2023-04-21T21:04:47.475Z,87.76
2023-04-21T21:07:15.610Z,87.44
2023-04-21T21:09:43.329Z,88.37
2023-04-21T21:12:12.758Z,88.28
2023-04-21T21:14:40.795Z,87.80
2023-04-21T21:17:08.815Z,89.13
2023-04-21T21:19:37.013Z,88.61
2023-04-21T21:22:05.786Z,89.32
2023-04-21T21:24:34.092Z,88.13
2023-04-21T21:27:02.359Z,87.77
2023-04-21T21:29:30.199Z,87.05
2023-04-21T21:31:58.686Z,86.89
2023-04-21T21:34:27.139Z,88.24
2023-04-21T21:36:55.283Z,87.39
2023-04-21T21:39:26.066Z,87.52
2023-04-21T21:41:55.803Z,87.72
2023-04-21T21:44:24.888Z,87.01
2023-04-21T21:46:53.675Z,87.28
2023-04-21T21:49:22.242Z,87.29
2023-04-21T21:51:50.368Z,88.25
2023-04-21T21:54:19.177Z,87.50
2023-04-21T21:56:47.476Z,88.54
2023-04-21T21:59:15.705Z,87.74
2023-04-21T22:01:43.814Z,88.10
2023-04-21T22:04:13.293Z,87.78
2023-04-21T22:06:41.198Z,88.14
2023-04-21T22:09:09.417Z,87.49
2023-04-21T22:11:38.340Z,87.61
2023-04-21T22:14:19.006Z,88.78
2023-04-21T22:16:51.126Z,88.16
2023-04-21T22:19:19.637Z,87.80
2023-04-21T22:21:48.081Z,89.10
2023-04-21T22:24:16.155Z,88.32
2023-04-21T22:26:44.322Z,88.16
2023-04-21T22:29:13.256Z,88.18
2023-04-21T22:31:42.178Z,88.91
2023-04-21T22:34:10.644Z,88.96
2023-04-21T22:36:38.420Z,88.61
2023-04-21T22:39:06.508Z,89.39
2023-04-21T22:41:34.244Z,88.55
2023-04-21T22:44:02.017Z,87.95
2023-04-21T22:46:33.718Z,88.85
2023-04-21T22:49:04.123Z,89.22
2023-04-21T22:51:33.929Z,89.35
2023-04-21T22:54:03.546Z,90.57
2023-04-21T22:56:31.847Z,89.67
2023-04-21T22:58:59.984Z,90.21
2023-04-21T23:01:28.332Z,90.38
2023-04-21T23:03:58.050Z,90.67
2023-04-21T23:06:26.941Z,90.67
2023-04-21T23:08:54.717Z,90.63
2023-04-21T23:11:23.776Z,90.74
2023-04-21T23:13:51.783Z,90.21
2023-04-21T23:16:19.655Z,90.48
2023-04-21T23:18:48.095Z,90.02
2023-04-21T23:21:16.842Z,91.84
2023-04-21T23:23:45.060Z,91.08
2023-04-21T23:26:12.752Z,90.12
2023-04-21T23:28:40.544Z,90.04
2023-04-21T23:31:08.304Z,89.82
2023-04-21T23:33:35.968Z,90.25
2023-04-21T23:36:03.648Z,90.00
2023-04-21T23:38:31.553Z,90.52
2023-04-21T23:40:59.531Z,89.95
2023-04-21T23:43:27.172Z,89.64
2023-04-21T23:45:55.176Z,91.13
2023-04-21T23:48:24.094Z,91.18
2023-04-21T23:50:52.719Z,91.48
2023-04-21T23:53:20.461Z,91.40
2023-04-21T23:55:49.526Z,91.99
2023-04-21T23:58:17.184Z,92.24
